Terminal Aerodrome Forecast
Issued by NWS

Home | Current Version | Previous Version | Text Only | Print | Product List | Glossary Off
Versions: 1 2 3 4 5 6 7 8 9 10 11 12 13 14 15 16 17 18 19

000
FTUS43 KUNR 040438 AAA
TAFGCC
TAF AMD
KGCC 040438Z 0405/0424 08010KT P6SM -SHRA OVC050
     FM040700 14013KT P6SM -SHRA OVC040
     FM041500 16020KT P6SM BKN040=

USA.gov is the U.S. government's official web portal to all federal, state and local government web resources and services.